Capitol Logistics 789


WSSS
Changi International Airport
Singapore, SG
RKSI
Incheon International Airport
Seoul, KR

Route Details

Aircraft Information
Primary: Boeing 747-400BCF
Backup: Boeing 777-200LRF
Route Data
Distance: 2501nm
Sched. Duration: 6h 00m
Avg. Duration: 5h 51m (-48m)
Times Flown: 2
Recm'd Route: TOMAN2A TOMAN L625 MEVIN B462 MJC IKEMA Y62 YURIX Y27 RUSAR Y579 CJU B576 OLMEN OLMEN1P
Planned Altitude: 33,000ft
Origin Wx: WSSS 281130Z 03009KT 330V070 9999 FEW020 BKN300 28/23 Q1008 NOSIG
Dest. Wx: RKSI 281130Z 05006KT 1400 R33R/1400N R33L/1700N R34/1600D -RA BR SCT004 BKN025 OVC080 04/02 Q1020 NOSIG
Notes:

Financial History
Total Freight: 261,526lbs
Average Load: 130,763lbs/flt
Fuel Used: 249,570lbs
Avg. Fuel Used: 124,785lbs/flt
Fuel Expense: $237,092
Avg. Fuel Expense: $118,546
Avg. Fuel Cost: $0.95/lbs
Total Gross Income: $826,660
Pilot Pay: $468
Total Expenses: $89,383
Total Revenue: $497,380
Average Revenue: $413,329.95